sensor_id;sensor_type;location;lat;lon;timestamp;pressure;altitude;pressure_sealevel;temperature;humidity
45253;BME280;63171;50.520;30.486;2023-05-23T00:00:22;99992.53;;;18.77;46.10
45253;BME280;63171;50.520;30.486;2023-05-23T00:02:57;99992.97;;;18.73;45.96
45253;BME280;63171;50.520;30.486;2023-05-23T00:03:48;99986.69;;;18.74;46.02
45253;BME280;63171;50.520;30.486;2023-05-23T00:04:38;99988.22;;;18.76;46.17
45253;BME280;63171;50.520;30.486;2023-05-23T00:05:29;99992.00;;;18.74;45.99
45253;BME280;63171;50.520;30.486;2023-05-23T00:06:19;99977.91;;;18.73;46.21
45253;BME280;63171;50.520;30.486;2023-05-23T00:07:10;99983.06;;;18.75;45.98
45253;BME280;63171;50.520;30.486;2023-05-23T00:08:00;99989.19;;;18.75;46.31
45253;BME280;63171;50.520;30.486;2023-05-23T00:08:50;99980.69;;;18.72;45.99
45253;BME280;63171;50.520;30.486;2023-05-23T00:09:40;99977.06;;;18.73;46.02
45253;BME280;63171;50.520;30.486;2023-05-23T00:10:31;99977.06;;;18.73;46.12
45253;BME280;63171;50.520;30.486;2023-05-23T00:11:21;99977.34;;;18.70;46.08
45253;BME280;63171;50.520;30.486;2023-05-23T00:12:16;99972.88;;;18.70;46.11
45253;BME280;63171;50.520;30.486;2023-05-23T00:13:06;99978.88;;;18.72;46.02
45253;BME280;63171;50.520;30.486;2023-05-23T00:13:57;99971.75;;;18.73;46.21
45253;BME280;63171;50.520;30.486;2023-05-23T00:14:49;99977.06;;;18.73;45.96
45253;BME280;63171;50.520;30.486;2023-05-23T00:15:42;99980.69;;;18.72;46.07
45253;BME280;63171;50.520;30.486;2023-05-23T00:16:32;99972.31;;;18.67;46.06
45253;BME280;63171;50.520;30.486;2023-05-23T00:17:22;99971.34;;;18.68;46.25
45253;BME280;63171;50.520;30.486;2023-05-23T00:18:13;99966.88;;;18.68;46.30
45253;BME280;63171;50.520;30.486;2023-05-23T00:19:04;99972.16;;;18.68;46.25
45253;BME280;63171;50.520;30.486;2023-05-23T00:19:54;99967.59;;;18.70;46.17
45253;BME280;63171;50.520;30.486;2023-05-23T00:20:45;99967.69;;;18.69;46.30
45253;BME280;63171;50.520;30.486;2023-05-23T00:21:35;99968.00;;;18.66;46.18
45253;BME280;63171;50.520;30.486;2023-05-23T00:22:25;99967.16;;;18.65;46.21
45253;BME280;63171;50.520;30.486;2023-05-23T00:23:15;99970.50;;;18.67;46.29
45253;BME280;63171;50.520;30.486;2023-05-23T00:24:08;99967.16;;;18.65;46.27
45253;BME280;63171;50.520;30.486;2023-05-23T00:24:58;99967.84;;;18.67;46.23
45253;BME280;63171;50.520;30.486;2023-05-23T00:25:51;99965.34;;;18.66;46.26
45253;BME280;63171;50.520;30.486;2023-05-23T00:26:42;99967.16;;;18.65;46.25
45253;BME280;63171;50.520;30.486;2023-05-23T00:27:33;99962.00;;;18.64;46.39
45253;BME280;63171;50.520;30.486;2023-05-23T00:28:24;99960.31;;;18.63;46.46
45253;BME280;63171;50.520;30.486;2023-05-23T00:29:14;99969.97;;;18.64;46.52
45253;BME280;63171;50.520;30.486;2023-05-23T00:30:06;99959.34;;;18.64;46.20
45253;BME280;63171;50.520;30.486;2023-05-23T00:30:56;99963.66;;;18.65;46.40
45253;BME280;63171;50.520;30.486;2023-05-23T00:31:47;99964.50;;;18.65;46.25
45253;BME280;63171;50.520;30.486;2023-05-23T00:32:37;99963.78;;;18.63;46.36
45253;BME280;63171;50.520;30.486;2023-05-23T00:33:28;99961.44;;;18.60;46.41
45253;BME280;63171;50.520;30.486;2023-05-23T00:34:18;99964.66;;;18.54;46.14
45253;BME280;63171;50.520;30.486;2023-05-23T00:35:08;99959.47;;;18.52;46.17
45253;BME280;63171;50.520;30.486;2023-05-23T00:35:58;99964.25;;;18.49;46.19
45253;BME280;63171;50.520;30.486;2023-05-23T00:36:49;99970.09;;;18.52;46.24
45253;BME280;63171;50.520;30.486;2023-05-23T00:37:40;99955.84;;;18.53;46.29
45253;BME280;63171;50.520;30.486;2023-05-23T00:38:30;99963.66;;;18.55;46.10
45253;BME280;63171;50.520;30.486;2023-05-23T00:39:20;99961.00;;;18.55;46.13
45253;BME280;63171;50.520;30.486;2023-05-23T00:40:11;99967.88;;;18.57;46.32
45253;BME280;63171;50.520;30.486;2023-05-23T00:41:02;99962.69;;;18.56;46.28
45253;BME280;63171;50.520;30.486;2023-05-23T00:41:53;99961.31;;;18.52;46.22
45253;BME280;63171;50.520;30.486;2023-05-23T00:42:44;99951.53;;;18.52;46.13
45253;BME280;63171;50.520;30.486;2023-05-23T00:43:34;99959.34;;;18.54;46.14
45253;BME280;63171;50.520;30.486;2023-05-23T00:44:25;99961.31;;;18.52;46.15
45253;BME280;63171;50.520;30.486;2023-05-23T00:45:15;99957.66;;;18.53;46.13
45253;BME280;63171;50.520;30.486;2023-05-23T00:46:06;99955.84;;;18.53;46.23
45253;BME280;63171;50.520;30.486;2023-05-23T00:46:57;99955.16;;;18.51;46.13
45253;BME280;63171;50.520;30.486;2023-05-23T00:47:48;99958.50;;;18.53;46.19
45253;BME280;63171;50.520;30.486;2023-05-23T00:48:39;99954.78;;;18.46;46.11
45253;BME280;63171;50.520;30.486;2023-05-23T00:49:30;99954.31;;;18.51;46.29
45253;BME280;63171;50.520;30.486;2023-05-23T00:50:20;99956.16;;;18.50;46.25
45253;BME280;63171;50.520;30.486;2023-05-23T00:51:09;99953.63;;;18.49;46.37
45253;BME280;63171;50.520;30.486;2023-05-23T00:52:00;99952.81;;;18.48;46.37
45253;BME280;63171;50.520;30.486;2023-05-23T00:52:51;99950.31;;;18.47;46.38
45253;BME280;63171;50.520;30.486;2023-05-23T00:53:42;99949.31;;;18.48;46.35
45253;BME280;63171;50.520;30.486;2023-05-23T00:54:32;99950.00;;;18.50;46.26
45253;BME280;63171;50.520;30.486;2023-05-23T00:55:24;99950.00;;;18.50;46.32
45253;BME280;63171;50.520;30.486;2023-05-23T00:56:14;99946.81;;;18.46;46.23
45253;BME280;63171;50.520;30.486;2023-05-23T00:57:05;99954.63;;;18.48;46.34
45253;BME280;63171;50.520;30.486;2023-05-23T00:57:57;99949.31;;;18.48;46.15
45253;BME280;63171;50.520;30.486;2023-05-23T00:58:48;99943.47;;;18.44;46.30
45253;BME280;63171;50.520;30.486;2023-05-23T00:59:38;99942.63;;;18.44;46.31
45253;BME280;63171;50.520;30.486;2023-05-23T01:00:29;99946.53;;;18.40;46.26
45253;BME280;63171;50.520;30.486;2023-05-23T01:01:21;99941.09;;;18.41;46.33
45253;BME280;63171;50.520;30.486;2023-05-23T01:02:12;99936.75;;;18.40;46.07
45253;BME280;63171;50.520;30.486;2023-05-23T01:03:03;99947.22;;;18.42;46.32
45253;BME280;63171;50.520;30.486;2023-05-23T01:03:53;99941.22;;;18.40;46.40
45253;BME280;63171;50.520;30.486;2023-05-23T01:04:44;99940.97;;;18.33;46.38
45253;BME280;63171;50.520;30.486;2023-05-23T01:05:34;99943.94;;;18.30;46.40
45253;BME280;63171;50.520;30.486;2023-05-23T01:06:25;99935.41;;;18.26;46.28
45253;BME280;63171;50.520;30.486;2023-05-23T01:07:14;99941.00;;;18.23;46.35
45253;BME280;63171;50.520;30.486;2023-05-23T01:08:05;99943.34;;;18.26;46.22
45253;BME280;63171;50.520;30.486;2023-05-23T01:08:56;99934.28;;;18.29;46.14
45253;BME280;63171;50.520;30.486;2023-05-23T01:09:50;99936.94;;;18.29;46.24
45253;BME280;63171;50.520;30.486;2023-05-23T01:10:40;99939.03;;;18.25;46.29
45253;BME280;63171;50.520;30.486;2023-05-23T01:11:34;99938.06;;;18.26;46.37
45253;BME280;63171;50.520;30.486;2023-05-23T01:12:34;99934.84;;;18.23;46.35
45253;BME280;63171;50.520;30.486;2023-05-23T01:13:35;99934.84;;;18.23;46.35
45253;BME280;63171;50.520;30.486;2023-05-23T01:14:31;99944.47;;;18.24;46.49
45253;BME280;63171;50.520;30.486;2023-05-23T01:15:28;99940.00;;;18.24;46.63
45253;BME280;63171;50.520;30.486;2023-05-23T01:16:28;99942.69;;;18.15;46.41
45253;BME280;63171;50.520;30.486;2023-05-23T01:17:28;99936.81;;;18.11;46.51
45253;BME280;63171;50.520;30.486;2023-05-23T01:18:24;99941.00;;;18.14;46.53
45253;BME280;63171;50.520;30.486;2023-05-23T01:19:39;99944.09;;;18.09;46.48
45253;BME280;63171;50.520;30.486;2023-05-23T01:20:37;99943.53;;;17.96;46.45
45253;BME280;63171;50.520;30.486;2023-05-23T01:21:28;99943.25;;;17.99;46.41
45253;BME280;63171;50.520;30.486;2023-05-23T01:22:22;99944.66;;;18.03;46.58
45253;BME280;63171;50.520;30.486;2023-05-23T01:23:31;99942.56;;;18.07;46.67
45253;BME280;63171;50.520;30.486;2023-05-23T01:24:33;99950.66;;;18.05;46.72
45253;BME280;63171;50.520;30.486;2023-05-23T01:25:30;99938.25;;;18.06;46.58
45253;BME280;63171;50.520;30.486;2023-05-23T01:26:32;99944.22;;;17.98;46.69
45253;BME280;63171;50.520;30.486;2023-05-23T01:27:39;99942.28;;;18.00;47.04
45253;BME280;63171;50.520;30.486;2023-05-23T01:28:32;99940.06;;;17.95;47.06
45253;BME280;63171;50.520;30.486;2023-05-23T01:29:27;99939.06;;;17.96;46.69
45253;BME280;63171;50.520;30.486;2023-05-23T01:30:18;99931.81;;;17.98;46.93
45253;BME280;63171;50.520;30.486;2023-05-23T01:31:10;99946.06;;;17.97;46.76
45253;BME280;63171;50.520;30.486;2023-05-23T01:32:01;99941.47;;;17.90;46.68
45253;BME280;63171;50.520;30.486;2023-05-23T01:32:55;99941.88;;;17.85;46.91
45253;BME280;63171;50.520;30.486;2023-05-23T01:33:48;99936.72;;;17.93;46.92
45253;BME280;63171;50.520;30.486;2023-05-23T01:34:41;99942.03;;;17.93;46.78
45253;BME280;63171;50.520;30.486;2023-05-23T01:35:32;99941.72;;;17.96;46.84
45253;BME280;63171;50.520;30.486;2023-05-23T01:36:24;99940.06;;;17.95;46.88
45253;BME280;63171;50.520;30.486;2023-05-23T01:37:15;99942.16;;;17.92;46.87
45253;BME280;63171;50.520;30.486;2023-05-23T01:38:08;99949.69;;;17.96;46.94
45253;BME280;63171;50.520;30.486;2023-05-23T01:38:58;99942.13;;;18.01;46.97
45253;BME280;63171;50.520;30.486;2023-05-23T01:39:50;99945.06;;;17.98;47.01
45253;BME280;63171;50.520;30.486;2023-05-23T01:40:40;99944.22;;;17.98;47.15
45253;BME280;63171;50.520;30.486;2023-05-23T01:41:32;99945.50;;;18.04;47.14
45253;BME280;63171;50.520;30.486;2023-05-23T01:42:22;99945.22;;;18.07;47.05
45253;BME280;63171;50.520;30.486;2023-05-23T01:43:15;99945.22;;;18.07;46.99
45253;BME280;63171;50.520;30.486;2023-05-23T01:44:05;99952.19;;;18.08;47.25
45253;BME280;63171;50.520;30.486;2023-05-23T01:44:56;99953.03;;;18.08;47.15
45253;BME280;63171;50.520;30.486;2023-05-23T01:45:48;99939.91;;;18.07;47.37
45253;BME280;63171;50.520;30.486;2023-05-23T01:46:40;99938.38;;;18.04;47.31
45253;BME280;63171;50.520;30.486;2023-05-23T01:47:34;99949.09;;;18.02;47.38
45253;BME280;63171;50.520;30.486;2023-05-23T01:48:26;99939.47;;;18.01;47.35
45253;BME280;63171;50.520;30.486;2023-05-23T01:49:17;99938.09;;;17.97;47.45
45253;BME280;63171;50.520;30.486;2023-05-23T01:50:09;99940.31;;;18.02;47.35
45253;BME280;63171;50.520;30.486;2023-05-23T01:51:00;99943.81;;;18.02;47.30
45253;BME280;63171;50.520;30.486;2023-05-23T01:51:51;99942.72;;;18.05;47.46
45253;BME280;63171;50.520;30.486;2023-05-23T01:52:42;99939.22;;;18.05;47.29
45253;BME280;63171;50.520;30.486;2023-05-23T01:53:33;99941.88;;;18.05;47.29
45253;BME280;63171;50.520;30.486;2023-05-23T01:54:24;99942.28;;;18.00;47.37
45253;BME280;63171;50.520;30.486;2023-05-23T01:55:17;99935.84;;;18.02;47.48
45253;BME280;63171;50.520;30.486;2023-05-23T01:56:11;99928.47;;;17.96;47.33
45253;BME280;63171;50.520;30.486;2023-05-23T01:57:03;99937.25;;;17.97;47.36
45253;BME280;63171;50.520;30.486;2023-05-23T01:57:55;99936.13;;;17.99;47.49
45253;BME280;63171;50.520;30.486;2023-05-23T01:58:48;99937.81;;;18.00;47.43
45253;BME280;63171;50.520;30.486;2023-05-23T01:59:38;99936.13;;;17.99;47.57
45253;BME280;63171;50.520;30.486;2023-05-23T02:00:29;99936.28;;;17.98;47.54
45253;BME280;63171;50.520;30.486;2023-05-23T02:01:18;99933.94;;;17.95;47.52
45253;BME280;63171;50.520;30.486;2023-05-23T02:02:10;99934.06;;;17.93;47.54
45253;BME280;63171;50.520;30.486;2023-05-23T02:03:00;99933.78;;;17.96;47.65
45253;BME280;63171;50.520;30.486;2023-05-23T02:03:50;99937.13;;;17.98;47.50
45253;BME280;63171;50.520;30.486;2023-05-23T02:04:40;99932.81;;;17.97;47.49
45253;BME280;63171;50.520;30.486;2023-05-23T02:05:30;99940.06;;;17.95;47.50
45253;BME280;63171;50.520;30.486;2023-05-23T02:06:20;99933.94;;;17.95;47.50
45253;BME280;63171;50.520;30.486;2023-05-23T02:07:10;99931.56;;;17.92;47.57
45253;BME280;63171;50.520;30.486;2023-05-23T02:08:00;99929.06;;;17.90;47.50
45253;BME280;63171;50.520;30.486;2023-05-23T02:08:52;99929.06;;;17.90;47.59
45253;BME280;63171;50.520;30.486;2023-05-23T02:09:42;99934.22;;;17.92;47.49
45253;BME280;63171;50.520;30.486;2023-05-23T02:10:32;99932.41;;;17.92;47.53
45253;BME280;63171;50.520;30.486;2023-05-23T02:11:23;99936.56;;;17.95;47.66
45253;BME280;63171;50.520;30.486;2023-05-23T02:12:15;99933.09;;;17.94;47.69
45253;BME280;63171;50.520;30.486;2023-05-23T02:13:04;99931.28;;;17.95;47.62
45253;BME280;63171;50.520;30.486;2023-05-23T02:13:56;99929.31;;;17.97;47.61
45253;BME280;63171;50.520;30.486;2023-05-23T02:14:46;99932.94;;;17.96;47.78
45253;BME280;63171;50.520;30.486;2023-05-23T02:15:37;99925.00;;;17.96;47.72
45253;BME280;63171;50.520;30.486;2023-05-23T02:16:26;99934.63;;;17.97;47.67
45253;BME280;63171;50.520;30.486;2023-05-23T02:17:17;99930.16;;;17.97;47.87
45253;BME280;63171;50.520;30.486;2023-05-23T02:18:07;99929.31;;;17.97;47.70
45253;BME280;63171;50.520;30.486;2023-05-23T02:19:02;99928.19;;;17.99;47.89
45253;BME280;63171;50.520;30.486;2023-05-23T02:19:52;99928.78;;;17.93;47.75
45253;BME280;63171;50.520;30.486;2023-05-23T02:20:42;99923.31;;;17.95;47.82
45253;BME280;63171;50.520;30.486;2023-05-23T02:21:32;99923.19;;;17.96;47.78
45253;BME280;63171;50.520;30.486;2023-05-23T02:22:23;99921.22;;;17.98;47.95
45253;BME280;63171;50.520;30.486;2023-05-23T02:23:13;99921.91;;;18.00;47.98
45253;BME280;63171;50.520;30.486;2023-05-23T02:24:04;99926.94;;;18.04;47.92
45253;BME280;63171;50.520;30.486;2023-05-23T02:24:54;99919.69;;;18.06;48.00
45253;BME280;63171;50.520;30.486;2023-05-23T02:25:44;99920.53;;;18.06;47.99
45253;BME280;63171;50.520;30.486;2023-05-23T02:26:34;99921.22;;;18.08;48.06
45253;BME280;63171;50.520;30.486;2023-05-23T02:27:26;99917.88;;;18.06;48.07
45253;BME280;63171;50.520;30.486;2023-05-23T02:28:15;99923.19;;;18.06;48.15
45253;BME280;63171;50.520;30.486;2023-05-23T02:29:08;99920.53;;;18.06;48.02
45253;BME280;63171;50.520;30.486;2023-05-23T02:29:57;99913.25;;;18.08;48.03
45253;BME280;63171;50.520;30.486;2023-05-23T02:30:48;99911.00;;;18.13;48.14
45253;BME280;63171;50.520;30.486;2023-05-23T02:31:38;99919.53;;;18.17;48.17
45253;BME280;63171;50.520;30.486;2023-05-23T02:32:29;99914.22;;;18.17;48.23
45253;BME280;63171;50.520;30.486;2023-05-23T02:33:19;99912.41;;;18.17;48.15
45253;BME280;63171;50.520;30.486;2023-05-23T02:34:10;99917.00;;;18.15;47.98
45253;BME280;63171;50.520;30.486;2023-05-23T02:35:00;99914.22;;;18.17;48.21
45253;BME280;63171;50.520;30.486;2023-05-23T02:35:51;99915.63;;;18.21;48.31
45253;BME280;63171;50.520;30.486;2023-05-23T02:36:40;99911.97;;;18.22;48.27
45253;BME280;63171;50.520;30.486;2023-05-23T02:37:33;99913.34;;;18.26;48.29
45253;BME280;63171;50.520;30.486;2023-05-23T02:38:23;99906.81;;;18.30;48.23
45253;BME280;63171;50.520;30.486;2023-05-23T02:39:15;99907.34;;;18.34;48.46
45253;BME280;63171;50.520;30.486;2023-05-23T02:40:06;99912.22;;;18.38;48.30
45253;BME280;63171;50.520;30.486;2023-05-23T02:40:59;99909.97;;;18.43;48.33
45253;BME280;63171;50.520;30.486;2023-05-23T02:41:50;99916.81;;;18.46;48.44
45253;BME280;63171;50.520;30.486;2023-05-23T02:42:40;99919.03;;;18.41;48.68
45253;BME280;63171;50.520;30.486;2023-05-23T02:43:30;99917.81;;;18.35;48.39
45253;BME280;63171;50.520;30.486;2023-05-23T02:44:22;99918.94;;;18.33;48.35
45253;BME280;63171;50.520;30.486;2023-05-23T02:45:12;99907.66;;;18.30;48.54
45253;BME280;63171;50.520;30.486;2023-05-23T02:46:03;99909.84;;;18.35;48.45
45253;BME280;63171;50.520;30.486;2023-05-23T02:46:53;99909.13;;;18.43;48.53
45253;BME280;63171;50.520;30.486;2023-05-23T02:47:42;99912.88;;;18.50;48.39
45253;BME280;63171;50.520;30.486;2023-05-23T02:48:33;99908.78;;;18.55;48.45
45253;BME280;63171;50.520;30.486;2023-05-23T02:49:23;99914.38;;;18.62;48.27
45253;BME280;63171;50.520;30.486;2023-05-23T02:50:14;99914.78;;;18.67;48.23
45253;BME280;63171;50.520;30.486;2023-05-23T02:51:05;99917.72;;;18.74;48.04
45253;BME280;63171;50.520;30.486;2023-05-23T02:51:55;99912.63;;;18.80;47.97
45253;BME280;63171;50.520;30.486;2023-05-23T02:52:46;99913.19;;;18.84;47.80
45253;BME280;63171;50.520;30.486;2023-05-23T02:53:35;99910.25;;;18.87;47.86
45253;BME280;63171;50.520;30.486;2023-05-23T02:54:27;99916.91;;;18.91;47.73
45253;BME280;63171;50.520;30.486;2023-05-23T02:55:16;99917.44;;;18.95;47.54
45253;BME280;63171;50.520;30.486;2023-05-23T02:56:10;99918.53;;;19.02;47.33
45253;BME280;63171;50.520;30.486;2023-05-23T02:57:01;99919.22;;;19.04;47.12
45253;BME280;63171;50.520;30.486;2023-05-23T02:57:54;99912.78;;;19.06;47.13
45253;BME280;63171;50.520;30.486;2023-05-23T02:58:45;99919.75;;;19.07;46.88
45253;BME280;63171;50.520;30.486;2023-05-23T02:59:37;99914.19;;;19.10;46.51
45253;BME280;63171;50.520;30.486;2023-05-23T03:00:27;99906.91;;;19.12;46.87
45253;BME280;63171;50.520;30.486;2023-05-23T03:01:20;99912.72;;;19.16;46.59
45253;BME280;63171;50.520;30.486;2023-05-23T03:02:09;99910.44;;;19.21;46.46
45253;BME280;63171;50.520;30.486;2023-05-23T03:03:00;99909.03;;;19.27;46.62
45253;BME280;63171;50.520;30.486;2023-05-23T03:03:50;99910.69;;;19.28;46.50
45253;BME280;63171;50.520;30.486;2023-05-23T03:04:41;99903.56;;;19.28;46.36
45253;BME280;63171;50.520;30.486;2023-05-23T03:05:30;99903.94;;;19.33;46.36
45253;BME280;63171;50.520;30.486;2023-05-23T03:06:21;99910.50;;;19.39;46.23
45253;BME280;63171;50.520;30.486;2023-05-23T03:07:11;99904.72;;;19.43;46.21
45253;BME280;63171;50.520;30.486;2023-05-23T03:08:03;99909.41;;;19.49;46.23
45253;BME280;63171;50.520;30.486;2023-05-23T03:08:53;99908.84;;;19.56;46.13
45253;BME280;63171;50.520;30.486;2023-05-23T03:09:45;99903.22;;;19.59;46.13
45253;BME280;63171;50.520;30.486;2023-05-23T03:10:35;99903.75;;;19.62;45.98
45253;BME280;63171;50.520;30.486;2023-05-23T03:11:26;99909.31;;;19.69;45.89
45253;BME280;63171;50.520;30.486;2023-05-23T03:12:16;99909.81;;;19.72;45.95
45253;BME280;63171;50.520;30.486;2023-05-23T03:13:07;99912.16;;;19.75;45.73
45253;BME280;63171;50.520;30.486;2023-05-23T03:13:57;99908.41;;;19.78;45.77
45253;BME280;63171;50.520;30.486;2023-05-23T03:14:49;99908.91;;;19.82;45.59
45253;BME280;63171;50.520;30.486;2023-05-23T03:15:39;99911.41;;;19.83;45.49
45253;BME280;63171;50.520;30.486;2023-05-23T03:16:29;99917.09;;;19.88;45.42
45253;BME280;63171;50.520;30.486;2023-05-23T03:17:19;99913.31;;;19.91;45.72
45253;BME280;63171;50.520;30.486;2023-05-23T03:18:09;99915.50;;;19.95;45.47
45253;BME280;63171;50.520;30.486;2023-05-23T03:19:01;99910.34;;;19.94;45.45
45253;BME280;63171;50.520;30.486;2023-05-23T03:19:51;99909.03;;;19.98;45.46
45253;BME280;63171;50.520;30.486;2023-05-23T03:20:41;99905.22;;;20.00;45.37
45253;BME280;63171;50.520;30.486;2023-05-23T03:21:32;99912.75;;;20.05;45.22
45253;BME280;63171;50.520;30.486;2023-05-23T03:22:23;99909.63;;;20.10;45.33
45253;BME280;63171;50.520;30.486;2023-05-23T03:23:14;99912.66;;;20.15;45.21
45253;BME280;63171;50.520;30.486;2023-05-23T03:24:04;99904.50;;;20.16;45.20
45253;BME280;63171;50.520;30.486;2023-05-23T03:24:53;99905.06;;;20.20;45.19
45253;BME280;63171;50.520;30.486;2023-05-23T03:25:44;99905.88;;;20.20;45.02
45253;BME280;63171;50.520;30.486;2023-05-23T03:26:34;99899.91;;;20.18;44.95
45253;BME280;63171;50.520;30.486;2023-05-23T03:27:25;99907.88;;;20.18;44.85
45253;BME280;63171;50.520;30.486;2023-05-23T03:28:14;99908.03;;;20.17;44.94
45253;BME280;63171;50.520;30.486;2023-05-23T03:29:05;99907.31;;;20.15;44.84
45253;BME280;63171;50.520;30.486;2023-05-23T03:29:56;99902.16;;;20.13;44.94
45253;BME280;63171;50.520;30.486;2023-05-23T03:30:47;99907.31;;;20.15;44.68
45253;BME280;63171;50.520;30.486;2023-05-23T03:31:37;99915.22;;;20.24;44.82
45253;BME280;63171;50.520;30.486;2023-05-23T03:32:27;99908.97;;;20.33;44.75
45253;BME280;63171;50.520;30.486;2023-05-23T03:33:17;99913.97;;;20.36;44.64
45253;BME280;63171;50.520;30.486;2023-05-23T03:34:07;99910.00;;;20.41;44.60
45253;BME280;63171;50.520;30.486;2023-05-23T03:34:57;99916.72;;;20.45;44.62
45253;BME280;63171;50.520;30.486;2023-05-23T03:35:47;99912.25;;;20.53;44.57
45253;BME280;63171;50.520;30.486;2023-05-23T03:36:37;99909.13;;;20.58;44.47
45253;BME280;63171;50.520;30.486;2023-05-23T03:37:28;99912.81;;;20.65;44.40
45253;BME280;63171;50.520;30.486;2023-05-23T03:38:19;99899.56;;;20.73;44.34
45253;BME280;63171;50.520;30.486;2023-05-23T03:39:09;99908.72;;;20.79;44.26
45253;BME280;63171;50.520;30.486;2023-05-23T03:39:59;99911.53;;;20.77;44.19
45253;BME280;63171;50.520;30.486;2023-05-23T03:40:50;99903.06;;;20.82;44.28
45253;BME280;63171;50.520;30.486;2023-05-23T03:41:40;99902.78;;;20.85;44.34
45253;BME280;63171;50.520;30.486;2023-05-23T03:42:30;99901.97;;;20.92;44.03
45253;BME280;63171;50.520;30.486;2023-05-23T03:43:20;99905.81;;;20.98;43.83
45253;BME280;63171;50.520;30.486;2023-05-23T03:44:11;99910.50;;;21.04;43.83
45253;BME280;63171;50.520;30.486;2023-05-23T03:45:02;99912.19;;;21.13;43.69
45253;BME280;63171;50.520;30.486;2023-05-23T03:45:53;99905.19;;;21.20;43.58
45253;BME280;63171;50.520;30.486;2023-05-23T03:46:43;99903.53;;;21.19;43.82
45253;BME280;63171;50.520;30.486;2023-05-23T03:47:33;99908.53;;;21.22;43.57
45253;BME280;63171;50.520;30.486;2023-05-23T03:48:23;99901.78;;;21.28;43.35
45253;BME280;63171;50.520;30.486;2023-05-23T03:49:14;99907.25;;;21.35;43.26
45253;BME280;63171;50.520;30.486;2023-05-23T03:50:05;99905.78;;;21.40;43.24
45253;BME280;63171;50.520;30.486;2023-05-23T03:50:56;99900.28;;;21.42;43.37
45253;BME280;63171;50.520;30.486;2023-05-23T03:51:46;99895.63;;;21.44;43.00
45253;BME280;63171;50.520;30.486;2023-05-23T03:52:38;99904.97;;;21.40;43.19
45253;BME280;63171;50.520;30.486;2023-05-23T03:53:29;99908.44;;;21.40;43.14
45253;BME280;63171;50.520;30.486;2023-05-23T03:54:19;99908.59;;;21.31;42.89
45253;BME280;63171;50.520;30.486;2023-05-23T03:55:09;99896.22;;;21.21;42.93
45253;BME280;63171;50.520;30.486;2023-05-23T03:55:59;99904.38;;;21.20;42.99
45253;BME280;63171;50.520;30.486;2023-05-23T03:56:49;99904.38;;;21.12;42.73
45253;BME280;63171;50.520;30.486;2023-05-23T03:57:39;99904.66;;;21.09;43.12
45253;BME280;63171;50.520;30.486;2023-05-23T03:58:30;99901.53;;;21.13;42.93
45253;BME280;63171;50.520;30.486;2023-05-23T03:59:24;99902.38;;;21.22;43.15
45253;BME280;63171;50.520;30.486;2023-05-23T04:00:16;99901.63;;;21.38;43.19
45253;BME280;63171;50.520;30.486;2023-05-23T04:01:07;99894.28;;;21.48;43.19
45253;BME280;63171;50.520;30.486;2023-05-23T04:01:57;99899.16;;;21.52;43.11
45253;BME280;63171;50.520;30.486;2023-05-23T04:02:48;99897.47;;;21.60;43.13
45253;BME280;63171;50.520;30.486;2023-05-23T04:03:41;99907.16;;;21.69;43.09
45253;BME280;63171;50.520;30.486;2023-05-23T04:04:31;99904.31;;;21.70;42.67
45253;BME280;63171;50.520;30.486;2023-05-23T04:05:22;99901.84;;;21.77;43.05
45253;BME280;63171;50.520;30.486;2023-05-23T04:06:12;99901.47;;;21.88;43.06
45253;BME280;63171;50.520;30.486;2023-05-23T04:07:05;99903.16;;;21.97;42.83
45253;BME280;63171;50.520;30.486;2023-05-23T04:07:57;99905.31;;;22.02;42.52
45253;BME280;63171;50.520;30.486;2023-05-23T04:08:49;99903.50;;;22.10;42.98
45253;BME280;63171;50.520;30.486;2023-05-23T04:09:39;99901.50;;;22.21;42.78
45253;BME280;63171;50.520;30.486;2023-05-23T04:10:31;99902.81;;;22.25;42.54
45253;BME280;63171;50.520;30.486;2023-05-23T04:11:21;99904.97;;;22.29;42.73
45253;BME280;63171;50.520;30.486;2023-05-23T04:12:13;99904.13;;;22.29;42.25
45253;BME280;63171;50.520;30.486;2023-05-23T04:13:03;99909.81;;;22.26;42.43
45253;BME280;63171;50.520;30.486;2023-05-23T04:13:55;99906.47;;;22.32;42.60
45253;BME280;63171;50.520;30.486;2023-05-23T04:14:44;99900.09;;;22.41;42.55
45253;BME280;63171;50.520;30.486;2023-05-23T04:15:38;99901.75;;;22.50;42.20
45253;BME280;63171;50.520;30.486;2023-05-23T04:16:31;99902.06;;;22.55;42.10
45253;BME280;63171;50.520;30.486;2023-05-23T04:17:24;99903.06;;;22.54;41.92
45253;BME280;63171;50.520;30.486;2023-05-23T04:18:14;99899.38;;;22.55;42.13
45253;BME280;63171;50.520;30.486;2023-05-23T04:19:06;99905.06;;;22.60;41.82
45253;BME280;63171;50.520;30.486;2023-05-23T04:19:56;99905.03;;;22.68;41.96
45253;BME280;63171;50.520;30.486;2023-05-23T04:20:46;99897.34;;;22.74;41.95
45253;BME280;63171;50.520;30.486;2023-05-23T04:21:36;99898.84;;;22.76;42.19
45253;BME280;63171;50.520;30.486;2023-05-23T04:22:30;99899.00;;;22.83;41.83
45253;BME280;63171;50.520;30.486;2023-05-23T04:23:20;99900.50;;;22.85;41.96
45253;BME280;63171;50.520;30.486;2023-05-23T04:24:17;99900.16;;;22.88;41.78
45253;BME280;63171;50.520;30.486;2023-05-23T04:25:07;99894.06;;;23.03;42.09
45253;BME280;63171;50.520;30.486;2023-05-23T04:26:03;99890.00;;;23.15;41.69
45253;BME280;63171;50.520;30.486;2023-05-23T04:26:58;99891.13;;;23.20;41.87
45253;BME280;63171;50.520;30.486;2023-05-23T04:27:49;99899.56;;;23.32;41.39
45253;BME280;63171;50.520;30.486;2023-05-23T04:28:39;99895.38;;;23.38;41.52
45253;BME280;63171;50.520;30.486;2023-05-23T04:29:29;99900.84;;;23.44;41.45
45253;BME280;63171;50.520;30.486;2023-05-23T04:30:22;99898.44;;;23.57;41.67